Time;durP1;ratioP1;P1;durP2;ratioP2;P2;SDS_P1;SDS_P2;PMS_P1;PMS_P2;Temp;Humidity;BMP_temperature;BMP_pressure;BME280_temperature;BME280_humidity;BME280_pressure;Samples;Min_cycle;Max_cycle;Signal;HPM_P1;HPM_P2
2022/07/23 00:01:28;;;;;;;12.38;6.10;;;666.30;1843.20;;;;;;5083441;28;20161;-76
2022/07/23 00:03:56;;;;;;;16.50;6.68;;;665.90;1792.00;;;;;;5097037;28;20020;-75
2022/07/23 00:06:23;;;;;;;16.13;5.93;;;665.80;1792.00;;;;;;5083660;28;20020;-75
2022/07/23 00:08:49;;;;;;;10.15;5.85;;;665.60;1792.00;;;;;;5073076;28;20112;-76
2022/07/23 00:11:14;;;;;;;13.45;5.88;;;665.60;1817.60;;;;;;5074312;28;20091;-77
2022/07/23 00:13:43;;;;;;;16.10;5.90;;;640.90;1792.00;;;;;;5095361;28;20036;-75
2022/07/23 00:16:09;;;;;;;15.93;6.20;;;665.60;1817.60;;;;;;5064511;28;20031;-76
2022/07/23 00:18:35;;;;;;;12.95;5.75;;;665.70;1792.00;;;;;;5066517;28;20036;-75
2022/07/23 00:21:01;;;;;;;13.27;5.65;;;640.90;1792.00;;;;;;5072063;28;20074;-77
2022/07/23 00:23:28;;;;;;;12.43;5.25;;;640.90;1792.00;;;;;;5076647;28;20059;-75
2022/07/23 00:26:11;;;;;;;15.02;5.93;;;640.70;1817.60;;;;;;5101153;28;20036;-75
2022/07/23 00:28:39;;;;;;;14.85;6.07;;;640.70;1792.00;;;;;;5109333;28;20122;-76
2022/07/23 00:31:06;;;;;;;8.55;5.30;;;640.70;1792.00;;;;;;5095857;28;20463;-74
2022/07/23 00:33:41;;;;;;;18.05;6.13;;;640.60;1792.00;;;;;;5123556;28;20031;-74
2022/07/23 00:36:07;;;;;;;21.00;5.63;;;640.60;1792.00;;;;;;5093224;28;20036;-78
2022/07/23 00:38:33;;;;;;;9.98;5.05;;;640.60;1766.40;;;;;;5106884;28;20076;-75
2022/07/23 00:40:58;;;;;;;18.55;6.65;;;640.60;1740.80;;;;;;5121546;28;20080;-78
2022/07/23 00:43:24;;;;;;;12.15;5.78;;;640.50;1740.80;;;;;;5132357;28;20024;-75
2022/07/23 00:45:51;;;;;;;12.15;5.47;;;640.40;1766.40;;;;;;5122995;28;20016;-74
2022/07/23 00:48:16;;;;;;;13.65;6.07;;;640.20;1766.40;;;;;;5130582;28;20030;-76
2022/07/23 00:50:43;;;;;;;10.65;4.95;;;640.00;1766.40;;;;;;5133906;28;20379;-78
2022/07/23 00:53:09;;;;;;;20.80;6.32;;;640.10;1740.80;;;;;;5133670;28;20059;-79
2022/07/23 00:55:35;;;;;;;10.07;5.35;;;640.20;1715.20;;;;;;5133520;28;20047;-78
2022/07/23 00:58:01;;;;;;;10.65;5.75;;;615.30;1740.80;;;;;;5115103;27;20047;-75
2022/07/23 01:00:29;;;;;;;8.57;5.35;;;640.10;1740.80;;;;;;5111636;28;20025;-75
2022/07/23 01:02:55;;;;;;;10.50;5.75;;;640.40;1715.20;;;;;;5101494;27;20423;-77
2022/07/23 01:05:22;;;;;;;14.25;5.43;;;640.50;1715.20;;;;;;5123970;27;20020;-75
2022/07/23 01:07:51;;;;;;;12.77;5.30;;;640.60;1715.20;;;;;;5119124;27;20054;-75
2022/07/23 01:10:30;;;;;;;12.05;4.68;;;640.90;1689.60;;;;;;5095870;27;20430;-74
2022/07/23 01:13:08;;;;;;;15.38;6.07;;;640.70;1689.60;;;;;;5114426;27;20031;-75
2022/07/23 01:15:35;;;;;;;9.38;5.30;;;665.60;1715.20;;;;;;5137363;27;20427;-75
2022/07/23 01:18:01;;;;;;;8.50;5.22;;;640.90;1689.60;;;;;;5137531;27;20031;-76
2022/07/23 01:20:27;;;;;;;9.80;5.55;;;665.70;1715.20;;;;;;5118957;27;20019;-78
2022/07/23 01:22:53;;;;;;;14.38;5.78;;;665.80;1689.60;;;;;;5118790;27;20465;-76
2022/07/23 01:25:23;;;;;;;10.25;5.68;;;665.90;1689.60;;;;;;5118009;27;20023;-75
2022/07/23 01:27:53;;;;;;;15.32;6.28;;;666.00;1689.60;;;;;;5131238;27;20060;-75
2022/07/23 01:30:19;;;;;;;12.27;4.95;;;666.00;1689.60;;;;;;5096899;28;20024;-75
2022/07/23 01:32:45;;;;;;;8.10;5.38;;;666.20;1689.60;;;;;;5107772;28;20108;-74
2022/07/23 01:35:11;;;;;;;11.02;5.20;;;665.80;1715.20;;;;;;5116152;28;20020;-75
2022/07/23 01:37:38;;;;;;;13.38;5.75;;;665.70;1740.80;;;;;;5106711;28;20028;-75
2022/07/23 01:40:05;;;;;;;15.82;5.53;;;665.60;1740.80;;;;;;5111866;28;20103;-74
2022/07/23 01:42:31;;;;;;;11.82;5.43;;;640.90;1740.80;;;;;;5116389;28;20027;-78
2022/07/23 01:44:56;;;;;;;18.65;6.10;;;665.60;1766.40;;;;;;5116218;28;20039;-74
2022/07/23 01:47:22;;;;;;;11.23;5.22;;;665.60;1740.80;;;;;;5116215;28;20361;-80
2022/07/23 01:49:51;;;;;;;14.10;5.85;;;665.60;1740.80;;;;;;5116355;28;20084;-76
2022/07/23 01:52:17;;;;;;;15.75;5.75;;;640.70;1740.80;;;;;;5116274;28;20024;-75
2022/07/23 01:54:43;;;;;;;10.77;5.03;;;640.70;1766.40;;;;;;5115572;28;20028;-75
2022/07/23 01:57:09;;;;;;;19.70;5.95;;;640.50;1792.00;;;;;;5116118;28;20081;-76
2022/07/23 01:59:35;;;;;;;11.43;5.55;;;640.50;1792.00;;;;;;5115907;28;20103;-75
2022/07/23 02:02:03;;;;;;;10.98;5.68;;;640.60;1792.00;;;;;;5110362;28;20023;-75
2022/07/23 02:04:29;;;;;;;9.65;5.00;;;640.70;1792.00;;;;;;5116195;28;20015;-76
2022/07/23 02:06:56;;;;;;;11.02;5.50;;;640.70;1792.00;;;;;;5115899;28;20077;-75
2022/07/23 02:09:22;;;;;;;16.02;5.50;;;640.90;1766.40;;;;;;5115605;28;20065;-77
2022/07/23 02:11:48;;;;;;;11.77;5.50;;;640.90;1766.40;;;;;;5096858;28;20489;-76
2022/07/23 02:14:16;;;;;;;11.27;5.65;;;640.60;1817.60;;;;;;5112682;28;20039;-75
2022/07/23 02:16:42;;;;;;;12.85;5.32;;;640.60;1817.60;;;;;;5093500;28;20028;-76
2022/07/23 02:19:11;;;;;;;12.52;5.57;;;640.40;1843.20;;;;;;5106161;28;20476;-76
2022/07/23 02:21:37;;;;;;;9.27;5.32;;;640.30;1868.80;;;;;;5097103;28;20022;-75
2022/07/23 02:24:04;;;;;;;12.13;4.70;;;640.40;1894.40;;;;;;5115596;28;20485;-77
2022/07/23 02:26:32;;;;;;;15.30;6.00;;;640.50;1868.80;;;;;;5115481;28;20046;-76
2022/07/23 02:28:57;;;;;;;7.97;4.93;;;640.50;1868.80;;;;;;5121586;27;20061;-76
2022/07/23 02:31:23;;;;;;;10.75;5.05;;;640.40;1894.40;;;;;;5100992;28;20024;-76
2022/07/23 02:33:49;;;;;;;8.25;5.18;;;640.20;1894.40;;;;;;5136178;27;20022;-76
2022/07/23 02:36:14;;;;;;;13.82;5.05;;;640.20;1920.00;;;;;;5117624;27;20034;-76
2022/07/23 02:38:40;;;;;;;13.05;5.30;;;640.00;1920.00;;;;;;5135679;27;20106;-76
2022/07/23 02:41:06;;;;;;;10.13;5.60;;;615.20;1894.40;;;;;;5117420;27;20068;-76
2022/07/23 02:43:32;;;;;;;10.93;5.25;;;615.00;1945.60;;;;;;5135608;27;20094;-75
2022/07/23 02:46:00;;;;;;;15.27;6.07;;;615.10;1945.60;;;;;;5117253;27;20035;-75
2022/07/23 02:48:29;;;;;;;15.95;6.25;;;615.00;1971.20;;;;;;5102847;27;20024;-77
2022/07/23 02:50:56;;;;;;;19.15;6.03;;;614.90;1971.20;;;;;;5133397;27;20024;-79
2022/07/23 02:53:25;;;;;;;15.75;5.30;;;614.90;1971.20;;;;;;5135667;27;20050;-76
2022/07/23 02:55:51;;;;;;;12.25;5.28;;;614.90;1945.60;;;;;;5133807;27;20345;-79
2022/07/23 02:58:17;;;;;;;10.90;5.65;;;614.80;1971.20;;;;;;5103060;28;20028;-77
2022/07/23 03:00:43;;;;;;;14.23;5.60;;;615.10;1945.60;;;;;;5106973;28;20008;-76
2022/07/23 03:03:12;;;;;;;15.73;5.95;;;614.90;1971.20;;;;;;5114846;28;20027;-77
2022/07/23 03:05:40;;;;;;;20.02;5.95;;;614.90;1971.20;;;;;;5113035;28;20122;-76
2022/07/23 03:08:06;;;;;;;13.25;6.13;;;614.90;1971.20;;;;;;5106126;28;20066;-78
2022/07/23 03:10:32;;;;;;;13.63;5.53;;;614.80;1971.20;;;;;;5081530;28;20020;-77
2022/07/23 03:12:58;;;;;;;14.73;6.13;;;614.80;1971.20;;;;;;5107934;28;20020;-76
2022/07/23 03:15:24;;;;;;;14.32;6.00;;;614.80;1996.80;;;;;;5105595;28;20020;-76
2022/07/23 03:17:50;;;;;;;10.57;5.68;;;614.80;1996.80;;;;;;5102937;28;20044;-76
2022/07/23 03:20:16;;;;;;;23.50;5.97;;;614.90;1996.80;;;;;;5094257;28;20074;-77
2022/07/23 03:22:41;;;;;;;18.75;6.43;;;614.90;1971.20;;;;;;5093668;28;20374;-75
2022/07/23 03:25:08;;;;;;;13.63;6.07;;;614.90;1996.80;;;;;;5094223;28;20023;-75
2022/07/23 03:27:34;;;;;;;12.18;5.78;;;614.80;1996.80;;;;;;5090812;28;20048;-78
2022/07/23 03:30:00;;;;;;;14.95;6.00;;;614.90;1996.80;;;;;;5073639;28;20405;-75
2022/07/23 03:32:26;;;;;;;14.07;6.65;;;614.80;2022.40;;;;;;5073844;28;20024;-75
2022/07/23 03:34:52;;;;;;;13.82;5.47;;;614.90;2022.40;;;;;;5055407;28;20082;-78
2022/07/23 03:37:19;;;;;;;13.45;6.03;;;614.80;2022.40;;;;;;5073580;28;20039;-75
2022/07/23 03:39:45;;;;;;;22.65;6.40;;;614.60;2048.00;;;;;;5055100;28;20032;-77
2022/07/23 03:42:11;;;;;;;12.40;6.18;;;614.80;2022.40;;;;;;5073603;28;20083;-78
2022/07/23 03:44:36;;;;;;;13.98;6.65;;;614.70;2048.00;;;;;;5073524;28;20020;-75
2022/07/23 03:47:03;;;;;;;15.68;6.78;;;614.80;2048.00;;;;;;5073367;28;20532;-75
2022/07/23 03:49:30;;;;;;;12.70;6.72;;;614.80;2048.00;;;;;;5073532;28;20020;-75
2022/07/23 03:51:55;;;;;;;19.05;5.78;;;614.80;2048.00;;;;;;5072088;28;20020;-75
2022/07/23 03:54:21;;;;;;;18.17;6.50;;;614.90;2048.00;;;;;;5053406;28;20532;-75
2022/07/23 03:56:47;;;;;;;13.27;5.72;;;614.90;2073.60;;;;;;5045091;28;20514;-77
2022/07/23 03:59:13;;;;;;;16.80;6.40;;;615.10;2048.00;;;;;;5052934;28;20028;-75
2022/07/23 04:01:38;;;;;;;12.13;6.38;;;615.30;2073.60;;;;;;5053282;28;20051;-75
2022/07/23 04:04:04;;;;;;;18.50;6.43;;;640.10;2150.40;;;;;;5053181;28;20057;-78
2022/07/23 04:06:30;;;;;;;12.02;6.63;;;640.20;2176.00;;;;;;5035427;28;20566;-76
2022/07/23 04:08:56;;;;;;;12.45;6.28;;;640.40;2176.00;;;;;;5052996;28;20509;-78
2022/07/23 04:11:22;;;;;;;12.63;6.28;;;640.40;2176.00;;;;;;5035605;28;20025;-80
2022/07/23 04:13:48;;;;;;;16.23;6.70;;;640.50;2176.00;;;;;;5053176;28;20032;-75
2022/07/23 04:16:13;;;;;;;21.13;6.72;;;640.50;2124.80;;;;;;5067060;28;20079;-80
2022/07/23 04:18:40;;;;;;;11.82;5.95;;;640.50;2124.80;;;;;;5053203;28;20035;-76
2022/07/23 04:21:06;;;;;;;19.30;6.70;;;640.60;2124.80;;;;;;5052942;28;20478;-80
2022/07/23 04:23:32;;;;;;;13.60;7.43;;;640.70;2099.20;;;;;;5052846;28;20075;-75
2022/07/23 04:25:57;;;;;;;16.13;6.10;;;640.70;2099.20;;;;;;5052660;28;20021;-76
2022/07/23 04:28:23;;;;;;;14.38;6.38;;;640.90;2073.60;;;;;;5062020;28;20043;-79
2022/07/23 04:30:49;;;;;;;12.77;7.40;;;640.90;2048.00;;;;;;5102536;28;20051;-75
2022/07/23 04:33:15;;;;;;;13.15;7.78;;;665.60;2073.60;;;;;;5112939;28;20375;-79
2022/07/23 04:35:40;;;;;;;17.85;7.55;;;665.60;2124.80;;;;;;5117638;28;20038;-75
2022/07/23 04:38:06;;;;;;;16.20;7.00;;;665.70;2099.20;;;;;;5117369;28;20036;-77
2022/07/23 04:40:32;;;;;;;14.70;6.95;;;665.70;2099.20;;;;;;5111930;28;20012;-74
2022/07/23 04:42:58;;;;;;;15.40;7.30;;;665.70;2073.60;;;;;;5108540;28;20023;-78
2022/07/23 04:45:24;;;;;;;16.48;7.97;;;665.70;2073.60;;;;;;5117018;28;20492;-74
2022/07/23 04:47:50;;;;;;;14.90;7.38;;;665.70;2073.60;;;;;;5117334;28;20023;-79
2022/07/23 04:50:21;;;;;;;15.55;7.68;;;665.70;2022.40;;;;;;5117185;28;20098;-75
2022/07/23 04:52:47;;;;;;;16.23;7.68;;;665.90;1996.80;;;;;;5117550;28;20016;-79
2022/07/23 04:55:13;;;;;;;16.55;8.45;;;665.90;1971.20;;;;;;5117341;28;20028;-75
2022/07/23 04:57:38;;;;;;;16.48;8.93;;;666.00;1971.20;;;;;;5116987;28;20369;-78
2022/07/23 05:00:06;;;;;;;20.85;8.98;;;666.10;1945.60;;;;;;5117086;28;20020;-79
2022/07/23 05:02:32;;;;;;;21.27;9.10;;;666.20;1945.60;;;;;;5117090;28;20099;-78
2022/07/23 05:04:58;;;;;;;18.42;8.95;;;666.10;1996.80;;;;;;5106534;28;20094;-74
2022/07/23 05:07:24;;;;;;;20.73;9.27;;;666.10;1996.80;;;;;;5099395;28;20434;-74
2022/07/23 05:09:50;;;;;;;20.20;8.15;;;666.20;1971.20;;;;;;5117093;28;20012;-74
2022/07/23 05:12:16;;;;;;;21.77;9.45;;;666.30;1945.60;;;;;;5116235;28;20034;-79
2022/07/23 05:14:42;;;;;;;15.85;8.23;;;666.50;1920.00;;;;;;5123805;27;20573;-73
2022/07/23 05:17:08;;;;;;;16.65;7.93;;;691.20;1920.00;;;;;;5124183;27;20032;-77
2022/07/23 05:19:34;;;;;;;12.90;8.02;;;691.30;1920.00;;;;;;5117711;27;20023;-74
2022/07/23 05:22:00;;;;;;;11.18;7.55;;;691.30;1894.40;;;;;;5137302;27;20487;-78
2022/07/23 05:24:26;;;;;;;13.82;8.32;;;691.30;1920.00;;;;;;5137260;27;20027;-74
2022/07/23 05:26:52;;;;;;;20.15;10.55;;;691.40;1920.00;;;;;;5137087;27;20025;-74
2022/07/23 05:29:17;;;;;;;14.68;7.25;;;691.60;1920.00;;;;;;5125594;27;20062;-79
2022/07/23 05:31:43;;;;;;;15.20;7.40;;;691.50;1868.80;;;;;;5133792;27;20464;-80
2022/07/23 05:34:09;;;;;;;20.38;7.90;;;691.60;1843.20;;;;;;5136910;27;20027;-76
2022/07/23 05:36:35;;;;;;;14.73;7.05;;;691.60;1766.40;;;;;;5118424;27;20449;-77
2022/07/23 05:39:01;;;;;;;15.73;6.88;;;691.70;1766.40;;;;;;5136772;27;20035;-75
2022/07/23 05:41:27;;;;;;;14.98;6.95;;;691.80;1740.80;;;;;;5137129;27;20019;-75
2022/07/23 05:43:52;;;;;;;17.52;6.78;;;691.90;1740.80;;;;;;5118106;27;20027;-77
2022/07/23 05:46:18;;;;;;;13.82;6.05;;;692.10;1715.20;;;;;;5117097;27;20035;-76
2022/07/23 05:48:45;;;;;;;10.93;6.20;;;692.10;1664.00;;;;;;5119385;27;20012;-78
2022/07/23 05:51:11;;;;;;;16.67;7.03;;;716.80;1689.60;;;;;;5107280;27;20160;-79
2022/07/23 05:53:38;;;;;;;15.48;6.43;;;716.90;1689.60;;;;;;5135670;27;20068;-76
2022/07/23 05:56:04;;;;;;;17.05;6.82;;;716.90;1664.00;;;;;;5105158;27;20043;-78
2022/07/23 05:58:30;;;;;;;13.70;6.95;;;716.90;1689.60;;;;;;5104592;28;20120;-75
2022/07/23 06:00:55;;;;;;;16.67;7.35;;;717.10;1664.00;;;;;;5135682;27;20038;-77
2022/07/23 06:03:21;;;;;;;10.02;6.47;;;717.20;1664.00;;;;;;5136762;27;20035;-77
2022/07/23 06:05:47;;;;;;;14.27;6.63;;;717.20;1612.80;;;;;;5117709;27;20028;-80
2022/07/23 06:08:13;;;;;;;10.38;6.15;;;717.40;1612.80;;;;;;5126938;27;20024;-82
2022/07/23 06:10:38;;;;;;;11.13;6.13;;;717.40;1612.80;;;;;;5131520;27;20084;-79
2022/07/23 06:13:04;;;;;;;13.30;6.00;;;717.60;1587.20;;;;;;5136612;27;20055;-79
2022/07/23 06:15:30;;;;;;;19.88;6.10;;;717.70;1587.20;;;;;;5122628;27;20031;-75
2022/07/23 06:17:56;;;;;;;11.73;6.72;;;717.70;1587.20;;;;;;5102510;27;20035;-76
2022/07/23 06:20:21;;;;;;;9.20;6.55;;;742.50;1612.80;;;;;;5136292;27;20024;-78
2022/07/23 06:22:47;;;;;;;12.82;7.10;;;742.60;1612.80;;;;;;5136200;27;20027;-76
2022/07/23 06:25:13;;;;;;;14.35;5.57;;;742.60;1587.20;;;;;;5136554;27;20456;-79
2022/07/23 06:27:39;;;;;;;17.65;6.50;;;742.80;1587.20;;;;;;5112995;28;20433;-77
2022/07/23 06:30:06;;;;;;;11.68;6.57;;;742.80;1561.60;;;;;;5101323;28;20024;-79
2022/07/23 06:32:31;;;;;;;10.65;5.80;;;742.80;1561.60;;;;;;5115540;28;20024;-79
2022/07/23 06:34:57;;;;;;;13.45;5.85;;;743.00;1536.00;;;;;;5081534;28;20419;-80
2022/07/23 06:37:23;;;;;;;13.93;5.95;;;743.10;1510.40;;;;;;5102691;28;20076;-77
2022/07/23 06:39:48;;;;;;;9.38;5.78;;;743.20;1484.80;;;;;;5097162;28;20106;-75
2022/07/23 06:42:14;;;;;;;14.10;5.40;;;743.20;1433.60;;;;;;5109933;28;20028;-76
2022/07/23 06:44:40;;;;;;;16.67;5.93;;;768.00;1408.00;;;;;;5095010;28;20042;-75
2022/07/23 06:47:08;;;;;;;11.93;5.13;;;768.10;1382.40;;;;;;5109032;28;20461;-77
2022/07/23 06:49:33;;;;;;;15.90;5.47;;;768.20;1382.40;;;;;;5104886;28;20023;-76
2022/07/23 06:51:59;;;;;;;12.07;4.97;;;768.30;1382.40;;;;;;5113299;28;20034;-79
2022/07/23 06:54:25;;;;;;;10.30;5.25;;;768.40;1356.80;;;;;;5102426;28;20027;-76
2022/07/23 06:56:51;;;;;;;13.63;6.05;;;768.40;1331.20;;;;;;5095060;28;20104;-77
2022/07/23 06:59:16;;;;;;;11.95;5.40;;;768.60;1356.80;;;;;;5114879;28;20027;-77
2022/07/23 07:01:42;;;;;;;10.85;5.80;;;768.70;1305.60;;;;;;5114834;28;20484;-79
2022/07/23 07:04:08;;;;;;;15.60;5.13;;;768.80;1305.60;;;;;;5096391;28;20206;-79
2022/07/23 07:06:34;;;;;;;11.25;5.70;;;768.90;1331.20;;;;;;5114788;28;20590;-78
2022/07/23 07:09:00;;;;;;;11.50;5.40;;;793.70;1356.80;;;;;;5114718;28;20016;-78
2022/07/23 07:11:25;;;;;;;11.90;5.55;;;793.70;1356.80;;;;;;5114885;28;20023;-78
2022/07/23 07:13:52;;;;;;;11.82;5.45;;;793.90;1356.80;;;;;;5100742;28;20020;-77
2022/07/23 07:16:18;;;;;;;9.80;5.45;;;794.10;1331.20;;;;;;5075632;28;20129;-78
2022/07/23 07:18:43;;;;;;;15.32;5.47;;;794.20;1331.20;;;;;;5075418;28;20111;-78
2022/07/23 07:21:09;;;;;;;13.05;5.90;;;794.30;1280.00;;;;;;5093782;28;20028;-78
2022/07/23 07:23:35;;;;;;;11.43;5.28;;;794.40;1280.00;;;;;;5082960;28;20070;-78
2022/07/23 07:26:01;;;;;;;13.10;5.85;;;794.40;1280.00;;;;;;5096078;28;20023;-74
2022/07/23 07:28:26;;;;;;;13.10;5.40;;;819.20;1305.60;;;;;;5120539;27;20484;-80
2022/07/23 07:30:52;;;;;;;19.58;6.10;;;819.30;1305.60;;;;;;5106307;27;20031;-76
2022/07/23 07:33:18;;;;;;;13.50;5.55;;;819.40;1280.00;;;;;;5134603;27;20105;-78
2022/07/23 07:35:44;;;;;;;9.88;5.45;;;819.40;1280.00;;;;;;5126789;27;20015;-79
2022/07/23 07:38:10;;;;;;;10.98;5.43;;;819.60;1254.40;;;;;;5122676;27;20035;-76
2022/07/23 07:40:36;;;;;;;10.32;4.97;;;819.70;1254.40;;;;;;5115452;27;20411;-76
2022/07/23 07:43:03;;;;;;;14.98;5.45;;;819.70;1228.80;;;;;;5107973;27;20043;-81
2022/07/23 07:45:29;;;;;;;13.65;5.15;;;819.80;1228.80;;;;;;5116076;27;20015;-77
2022/07/23 07:47:55;;;;;;;14.18;5.63;;;820.00;1228.80;;;;;;5134543;27;20034;-77
2022/07/23 07:50:21;;;;;;;13.77;5.75;;;844.80;1254.40;;;;;;5134267;27;20023;-76
2022/07/23 07:52:47;;;;;;;14.18;5.57;;;844.90;1254.40;;;;;;5134583;27;20030;-80
2022/07/23 07:55:14;;;;;;;10.55;5.20;;;844.90;1254.40;;;;;;5134289;27;20373;-76
2022/07/23 07:57:40;;;;;;;8.23;4.95;;;845.00;1254.40;;;;;;5134271;27;20031;-79
2022/07/23 08:00:09;;;;;;;11.98;4.63;;;845.20;1203.20;;;;;;5134405;27;20020;-75
2022/07/23 08:02:41;;;;;;;21.98;5.78;;;845.30;1152.00;;;;;;5114115;27;20020;-76
2022/07/23 08:05:08;;;;;;;13.70;5.15;;;845.40;1152.00;;;;;;5126310;27;20012;-74
2022/07/23 08:07:33;;;;;;;12.75;5.35;;;845.60;1152.00;;;;;;5134037;27;20068;-75
2022/07/23 08:09:59;;;;;;;9.57;4.88;;;845.60;1152.00;;;;;;5134180;27;20053;-76
2022/07/23 08:12:25;;;;;;;10.65;4.93;;;870.40;1152.00;;;;;;5134087;27;20024;-75
2022/07/23 08:14:51;;;;;;;18.10;4.70;;;870.40;1152.00;;;;;;5125909;27;20027;-76
2022/07/23 08:17:16;;;;;;;14.15;5.80;;;870.40;1152.00;;;;;;5113606;28;20034;-76
2022/07/23 08:19:42;;;;;;;9.98;5.32;;;845.70;1126.40;;;;;;5134272;27;20011;-81
2022/07/23 08:22:08;;;;;;;11.85;5.53;;;870.40;1152.00;;;;;;5134075;27;20042;-78
2022/07/23 08:24:34;;;;;;;13.57;5.57;;;870.40;1126.40;;;;;;5134053;28;20023;-81
2022/07/23 08:26:59;;;;;;;12.63;5.35;;;870.50;1152.00;;;;;;5134060;28;20054;-74
2022/07/23 08:29:26;;;;;;;12.48;5.78;;;870.70;1126.40;;;;;;5113121;28;20055;-75
2022/07/23 08:31:52;;;;;;;10.52;5.57;;;870.80;1100.80;;;;;;5117469;28;20030;-77
2022/07/23 08:34:18;;;;;;;13.50;4.80;;;870.80;1075.20;;;;;;5115578;28;20027;-76
2022/07/23 08:36:43;;;;;;;9.98;5.13;;;870.80;1075.20;;;;;;5115566;28;20434;-76
2022/07/23 08:39:09;;;;;;;6.70;4.80;;;870.80;1075.20;;;;;;5134070;28;20027;-77
2022/07/23 08:41:35;;;;;;;10.23;5.18;;;870.80;1049.60;;;;;;5133938;28;20023;-77
2022/07/23 08:44:01;;;;;;;15.68;5.63;;;870.80;1049.60;;;;;;5134144;28;20146;-76
2022/07/23 08:46:28;;;;;;;9.48;5.38;;;870.90;1024.00;;;;;;5121047;28;20015;-75
2022/07/23 08:48:54;;;;;;;9.60;5.05;;;870.90;1024.00;;;;;;5113044;28;20047;-78
2022/07/23 08:51:21;;;;;;;12.30;5.00;;;870.90;1049.60;;;;;;5094107;28;20389;-77
2022/07/23 08:53:47;;;;;;;15.35;4.75;;;871.00;1049.60;;;;;;5112311;28;20015;-77
2022/07/23 08:56:13;;;;;;;10.70;4.82;;;871.10;1024.00;;;;;;5108089;28;20397;-79
2022/07/23 08:58:39;;;;;;;11.85;5.45;;;871.30;998.40;;;;;;5112596;28;20071;-78
2022/07/23 09:01:05;;;;;;;10.90;5.65;;;871.30;1024.00;;;;;;5113119;28;20016;-79
2022/07/23 09:03:34;;;;;;;9.98;4.90;;;871.30;1024.00;;;;;;5094201;28;20042;-78
2022/07/23 09:06:03;;;;;;;17.23;5.53;;;871.30;1049.60;;;;;;5094687;28;20020;-78
2022/07/23 09:08:42;;;;;;;10.35;5.70;;;896.00;1049.60;;;;;;5110090;28;20396;-78
2022/07/23 09:11:13;;;;;;;9.98;4.60;;;896.00;1024.00;;;;;;5106745;28;20047;-78
2022/07/23 09:13:45;;;;;;;11.50;5.70;;;896.20;1024.00;;;;;;5074530;28;20503;-80
2022/07/23 09:16:30;;;;;;;14.90;5.68;;;896.30;1024.00;;;;;;5079973;28;20084;-80
2022/07/23 09:19:00;;;;;;;11.60;5.22;;;896.30;1024.00;;;;;;5100251;28;20085;-80
2022/07/23 09:21:28;;;;;;;8.77;5.65;;;896.30;1024.00;;;;;;5079036;28;20052;-80
2022/07/23 09:24:04;;;;;;;16.80;5.70;;;896.50;1024.00;;;;;;5082770;28;20496;-78
2022/07/23 09:26:33;;;;;;;12.05;4.78;;;896.60;972.80;;;;;;5100939;28;20099;-78
2022/07/23 09:29:03;;;;;;;12.15;5.20;;;896.80;998.40;;;;;;5081610;28;20517;-77
2022/07/23 09:31:52;;;;;;;9.10;5.28;;;896.80;998.40;;;;;;5079253;28;20039;-77
2022/07/23 09:34:49;;;;;;;9.63;4.93;;;921.70;1024.00;;;;;;5084726;28;20067;-75
2022/07/23 09:37:16;;;;;;;10.27;4.97;;;921.80;972.80;;;;;;5081184;28;20050;-81
2022/07/23 09:39:44;;;;;;;10.18;4.82;;;921.80;947.20;;;;;;5083360;28;20012;-78
2022/07/23 09:42:14;;;;;;;11.85;3.78;;;922.00;921.60;;;;;;5082339;28;20036;-78
2022/07/23 09:44:46;;;;;;;5.80;3.95;;;922.10;896.00;;;;;;5081620;28;20047;-80
2022/07/23 09:47:12;;;;;;;6.82;4.75;;;922.40;870.40;;;;;;5081934;28;20024;-78
2022/07/23 09:49:37;;;;;;;15.35;4.78;;;922.50;870.40;;;;;;5078892;28;20481;-79
2022/07/23 09:52:04;;;;;;;11.68;4.20;;;947.30;870.40;;;;;;5082506;28;20040;-79
2022/07/23 09:54:39;;;;;;;7.30;4.45;;;947.50;870.40;;;;;;5093194;28;20028;-77
2022/07/23 09:57:13;;;;;;;11.65;4.53;;;947.70;896.00;;;;;;5094469;28;20449;-77
2022/07/23 09:59:40;;;;;;;10.27;5.70;;;947.80;896.00;;;;;;5094964;28;20544;-78
2022/07/23 10:02:09;;;;;;;8.07;4.55;;;947.90;896.00;;;;;;5094691;28;20111;-78
2022/07/23 10:04:35;;;;;;;10.00;4.72;;;948.00;870.40;;;;;;5096038;28;20035;-83
2022/07/23 10:07:03;;;;;;;5.75;4.03;;;948.10;870.40;;;;;;5094096;28;20397;-81
2022/07/23 10:09:38;;;;;;;9.55;5.22;;;972.80;896.00;;;;;;5095845;28;20035;-78
2022/07/23 10:12:19;;;;;;;8.38;3.80;;;972.80;870.40;;;;;;5094207;28;20028;-79
2022/07/23 10:14:46;;;;;;;13.50;4.65;;;973.00;870.40;;;;;;5093263;28;20069;-78
2022/07/23 10:17:12;;;;;;;12.20;4.60;;;973.10;870.40;;;;;;5092169;28;20038;-77
2022/07/23 10:19:38;;;;;;;7.82;4.38;;;973.20;844.80;;;;;;5083525;28;20383;-77
2022/07/23 10:22:08;;;;;;;11.48;4.30;;;973.30;844.80;;;;;;5091365;28;20107;-77
2022/07/23 10:24:49;;;;;;;5.30;4.20;;;973.60;844.80;;;;;;5091122;28;20533;-77
2022/07/23 10:27:42;;;;;;;9.60;4.75;;;973.70;844.80;;;;;;5092626;28;20051;-82
2022/07/23 10:30:29;;;;;;;7.72;4.13;;;973.70;844.80;;;;;;5097403;28;20114;-85
2022/07/23 10:33:09;;;;;;;14.95;4.50;;;999.20;819.20;;;;;;5097052;28;20024;-87
2022/07/23 10:35:50;;;;;;;5.07;4.10;;;1024.40;819.20;;;;;;5090557;27;20114;-79
2022/07/23 10:38:21;;;;;;;18.98;5.18;;;1024.40;793.60;;;;;;5117015;27;20522;-78
2022/07/23 10:40:58;;;;;;;14.10;4.70;;;1049.80;793.60;;;;;;5117841;27;20110;-79
2022/07/23 10:43:25;;;;;;;10.75;4.65;;;1050.10;768.00;;;;;;5135946;27;20015;-85
2022/07/23 10:45:52;;;;;;;6.32;3.75;;;1049.80;793.60;;;;;;5135749;27;20045;-88
2022/07/23 10:48:22;;;;;;;16.35;4.50;;;1050.40;768.00;;;;;;5117479;27;20476;-91
2022/07/23 10:51:09;;;;;;;8.98;4.30;;;1050.50;768.00;;;;;;5112010;28;20103;-87
2022/07/23 10:53:57;;;;;;;8.50;4.18;;;1075.30;742.40;;;;;;5114204;28;20090;-78
2022/07/23 10:56:56;;;;;;;10.40;4.70;;;1075.80;716.80;;;;;;5094394;28;20031;-82
2022/07/23 10:59:22;;;;;;;6.65;3.95;;;1075.80;742.40;;;;;;5094375;28;20111;-81
2022/07/23 11:01:49;;;;;;;7.88;4.65;;;1075.90;742.40;;;;;;5104799;28;20012;-83
2022/07/23 11:04:15;;;;;;;7.43;4.05;;;1075.80;742.40;;;;;;5096371;28;20027;-80
2022/07/23 11:06:49;;;;;;;8.85;4.82;;;1075.30;742.40;;;;;;5096911;28;20080;-80
2022/07/23 11:09:38;;;;;;;10.80;4.93;;;1075.80;742.40;;;;;;5096778;28;20019;-81
2022/07/23 11:12:13;;;;;;;6.00;4.25;;;1075.70;716.80;;;;;;5092141;28;20370;-79
2022/07/23 11:14:57;;;;;;;8.98;4.55;;;1050.50;742.40;;;;;;5109614;28;20031;-82
2022/07/23 11:17:24;;;;;;;7.10;3.80;;;1075.20;742.40;;;;;;5114580;28;20031;-78
2022/07/23 11:20:09;;;;;;;7.63;4.53;;;1075.50;768.00;;;;;;5095330;28;20063;-79
2022/07/23 11:22:38;;;;;;;8.05;4.13;;;1075.30;742.40;;;;;;5112076;28;20020;-79
2022/07/23 11:25:04;;;;;;;8.50;4.32;;;1075.90;742.40;;;;;;5113200;28;20023;-79
2022/07/23 11:27:45;;;;;;;8.75;4.32;;;1075.70;716.80;;;;;;5113975;28;20419;-78
2022/07/23 11:30:30;;;;;;;10.38;4.35;;;1075.60;716.80;;;;;;5114182;28;20024;-77
2022/07/23 11:33:08;;;;;;;8.48;5.03;;;1075.80;716.80;;;;;;5112074;28;20023;-76
2022/07/23 11:35:39;;;;;;;6.28;4.28;;;1075.90;716.80;;;;;;5114853;27;20035;-86
2022/07/23 11:38:15;;;;;;;9.30;4.43;;;1076.10;691.20;;;;;;5096089;28;20128;-79
2022/07/23 11:40:48;;;;;;;10.35;4.80;;;1100.90;716.80;;;;;;5109853;27;20029;-82
2022/07/23 11:43:16;;;;;;;6.95;3.80;;;1101.10;716.80;;;;;;5125041;27;20034;-77
2022/07/23 11:45:46;;;;;;;7.10;4.18;;;1101.10;691.20;;;;;;5100119;28;20115;-77
2022/07/23 11:48:24;;;;;;;5.22;3.63;;;1101.10;691.20;;;;;;5113890;28;20027;-80
2022/07/23 11:50:51;;;;;;;6.65;4.53;;;1101.10;665.60;;;;;;5094476;28;20035;-81
2022/07/23 11:53:26;;;;;;;6.43;4.07;;;1101.30;665.60;;;;;;5113520;28;20030;-79
2022/07/23 11:55:52;;;;;;;;;;;1101.40;665.60;;;;;;5113604;28;20016;-78
2022/07/23 11:58:18;;;;;;;8.93;4.13;;;1101.00;665.60;;;;;;5095014;28;19916;-83
2022/07/23 12:00:44;;;;;;;6.38;3.75;;;1101.30;665.60;;;;;;5094887;28;20035;-79
2022/07/23 12:03:09;;;;;;;7.53;3.90;;;1101.60;665.60;;;;;;5095001;28;20388;-78
2022/07/23 12:05:37;;;;;;;6.55;4.22;;;1101.30;665.60;;;;;;5094318;28;20085;-78
2022/07/23 12:08:11;;;;;;;9.57;4.47;;;1101.40;691.20;;;;;;5113093;28;20031;-79
2022/07/23 12:10:38;;;;;;;;;;;1101.70;665.60;;;;;;5113729;28;20023;-81
2022/07/23 12:13:13;;;;;;;10.95;4.25;;;1126.60;665.60;;;;;;5095016;28;19995;-79
2022/07/23 12:15:40;;;;;;;;;;;1126.60;665.60;;;;;;5095006;28;20031;-78